Thunder radar more information blitzortung!


Radar de pluja more information rain snow radar


Visita la nostra xarxa de llocs de meteo:

Template documentation
and downloads

And another site



No particular awareness of the weather is required.    There are no Weather-warnings

Pagina Historial Weather Underground text

Diari Resum May 23, 2016 Unitats:  Mètric    Imperial   Tant
« Previous Dia
SegĂźent Dia »
Diari Setmana Mensual Anual Personalitzada
  Maxima: Minima: Media:
Temperatura: -17.8 °C -12.1 °C -7.8 °C
Punt de rosada: -17.8 °C -16.6 °C -14.9 °C
Humitat: Humidity % 27 % 45 %
Wind Speed: 0 km/h 0 km/h 14 km/h
RĂ fegues de vent: 0 km/h - -
Vent:- - South
Pression baro: 0 hPa 34496.6 hPa -
Precipitacions: 0 mm    
Historical Graphs
 
 
Dades de taula per May 23, 2016
Temps Temperatura Punt de rosada Pression baro Vent Wind Speed RĂ fegues de vent Humitat Rainfall Rate (Hourly)
-17.8 °C -17.8 °C 0 hPa Calm     Humidity % 0 mm
00:00 -11.7 °C -16.4 °C 34533.8 hPa West 7.7 km/h 18.2 km/h 56 % 0 mm
00:02 -10.4 °C -11.8 °C 34496.6 hPa ENE 25.1 km/h 25.1 km/h 84 % 0 mm
00:07 -10.4 °C -11.9 °C 34496.6 hPa ENE 25.1 km/h 25.1 km/h 84 % 0 mm
00:10 -11.8 °C -16.4 °C 34533.8 hPa WNW 7.7 km/h 12.9 km/h 56 % 0 mm
00:12 -10.4 °C -11.8 °C 34496.6 hPa ENE 25.1 km/h 25.1 km/h 85 % 0 mm
00:17 -10.4 °C -11.8 °C 34496.6 hPa ENE 25.1 km/h 25.1 km/h 85 % 0 mm
00:20 -11.8 °C -16.4 °C 34533.8 hPa West 7.7 km/h 12.9 km/h 56 % 0 mm
00:22 -10.5 °C -12 °C 34496.6 hPa ENE 25.1 km/h 25.1 km/h 84 % 0 mm
00:27 -10.7 °C -12.1 °C 34496.6 hPa ENE 25.1 km/h 25.1 km/h 84 % 0 mm
00:30 -11.9 °C -16.6 °C 34533.8 hPa WSW 5.1 km/h 15.6 km/h 56 % 0 mm
00:40 -11.9 °C -16.5 °C 34567.7 hPa WSW 5.1 km/h 7.7 km/h 57 % 0 mm
00:50 -12 °C -16.4 °C 34567.7 hPa NW 7.7 km/h 12.9 km/h 58 % 0 mm
01:00 -12 °C -16.4 °C 34567.7 hPa North 5.1 km/h 12.9 km/h 58 % 0 mm
01:10 -12.1 °C -16.4 °C 34601.5 hPa North 5.1 km/h 10.3 km/h 58 % 0 mm
01:20 -12.1 °C -16.5 °C 34601.5 hPa NNW 7.7 km/h 7.7 km/h 58 % 0 mm
01:30 -12.1 °C -16.5 °C 34601.5 hPa West 7.7 km/h 10.3 km/h 58 % 0 mm
01:40 -12.1 °C -16.5 °C 34635.4 hPa WSW 7.7 km/h 10.3 km/h 58 % 0 mm
01:50 -12.1 °C -16.5 °C 34601.5 hPa WSW 5.1 km/h 5.1 km/h 58 % 0 mm
02:00 -12.1 °C -16.3 °C 34601.5 hPa West 5.1 km/h 7.7 km/h 59 % 0 mm
02:10 -12.1 °C -16.3 °C 34567.7 hPa SSW 5.1 km/h 5.1 km/h 59 % 0 mm
02:20 -12.1 °C -16.2 °C 34601.5 hPa SSE 5.1 km/h 10.3 km/h 60 % 0 mm
02:30 -11.9 °C -16.1 °C 34601.5 hPa SSE 7.7 km/h 7.7 km/h 60 % 0 mm
02:40 -11.8 °C -16 °C 34601.5 hPa South 7.7 km/h 7.7 km/h 60 % 0 mm
02:50 -11.8 °C -15.9 °C 34635.4 hPa SW 5.1 km/h 5.1 km/h 60 % 0 mm
03:00 -11.7 °C -15.8 °C 34635.4 hPa WSW 2.6 km/h 7.7 km/h 60 % 0 mm
03:10 -11.5 °C -15.8 °C 34635.4 hPa SW 2.6 km/h 5.1 km/h 59 % 0 mm
03:20 -11.2 °C -15.6 °C 34635.4 hPa ENE 5.1 km/h 7.7 km/h 58 % 0 mm
03:30 -10.9 °C -15.4 °C 34635.4 hPa NE 7.7 km/h 10.3 km/h 58 % 0 mm
03:40 -10.8 °C -15.3 °C 34635.4 hPa NE 5.1 km/h 10.3 km/h 58 % 0 mm
03:50 -10.8 °C -15.4 °C 34635.4 hPa NE 5.1 km/h 10.3 km/h 57 % 0 mm
04:00 -10.6 °C -15.2 °C 34635.4 hPa NE 2.6 km/h 10.3 km/h 57 % 0 mm
04:10 -10.6 °C -15.3 °C 34635.4 hPa NNE 2.6 km/h 10.3 km/h 56 % 0 mm
04:20 -10 °C -14.8 °C 34635.4 hPa West 5.1 km/h 15.6 km/h 56 % 0 mm
04:30 -9.9 °C -14.8 °C 34635.4 hPa NE 5.1 km/h 10.3 km/h 56 % 0 mm
04:40 -9.7 °C -14.5 °C 34601.5 hPa NE 2.6 km/h 7.7 km/h 56 % 0 mm
04:50 -9.6 °C -14.6 °C 34601.5 hPa NNE 5.1 km/h 15.6 km/h 55 % 0 mm
05:00 -9.3 °C -14.3 °C 34601.5 hPa NNE 7.7 km/h 10.3 km/h 55 % 0 mm
05:10 -9.2 °C -14.4 °C 34635.4 hPa NNE 7.7 km/h 10.3 km/h 54 % 0 mm
05:20 -9.2 °C -14.4 °C 34635.4 hPa NE 7.7 km/h 15.6 km/h 54 % 0 mm
10:25 -9.2 °C -14.4 °C 34635.4 hPa North 7.6 km/h 8 km/h 54 % 0 mm
10:30 -9.3 °C -14.4 °C 34635.4 hPa ESE 9 km/h 9 km/h 54 % 0 mm
10:35 -9.3 °C -14.4 °C 34635.4 hPa SSE 15.3 km/h 15.3 km/h 54 % 0 mm
10:40 -9.1 °C -14.3 °C 34635.4 hPa ENE 6 km/h 6 km/h 54 % 0 mm
10:45 -9 °C -14.3 °C 34635.4 hPa NE 11.9 km/h 11.9 km/h 53 % 0 mm
10:50 -9 °C -14.3 °C 34635.4 hPa WNW 4.2 km/h   53 % 0 mm
10:55 -8.6 °C -13.8 °C 34635.4 hPa East 6 km/h 6 km/h 54 % 0 mm
11:00 -8.3 °C -13.8 °C 34635.4 hPa South 6.8 km/h 6.8 km/h 52 % 0 mm
11:05 -8.4 °C -13.7 °C 34635.4 hPa East 11.9 km/h 11.9 km/h 53 % 0 mm
11:10 -8.5 °C -13.8 °C 34635.4 hPa East 15.3 km/h 15.3 km/h 53 % 0 mm
11:15 -8.6 °C -14.1 °C 34635.4 hPa ENE 8 km/h 8 km/h 52 % 0 mm
11:20 -8.4 °C -13.9 °C 34601.5 hPa East 9 km/h 9 km/h 52 % 0 mm
11:25 -8.3 °C -14 °C 34601.5 hPa NNE 9 km/h 9 km/h 51 % 0 mm
11:30 -7.8 °C -13.6 °C 34601.5 hPa NE 9 km/h 9 km/h 51 % 0 mm
11:35 -7.7 °C -13.6 °C 34601.5 hPa WSW 15 km/h 15 km/h 50 % 0 mm
11:40 -7.4 °C -13.4 °C 34601.5 hPa WSW 9 km/h 9 km/h 50 % 0 mm
11:45 -7.3 °C -13.4 °C 34601.5 hPa WSW 11.9 km/h 11.9 km/h 49 % 0 mm
11:50 -7.4 °C -13.8 °C 34601.5 hPa WNW 15 km/h 15 km/h 47 % 0 mm
11:55 -7.2 °C -14 °C 34601.5 hPa WSW 20.9 km/h 20.9 km/h 45 % 0 mm
12:00 -7.3 °C -14.2 °C 34601.5 hPa NNW 17.9 km/h 17.9 km/h 44 % 0 mm
12:05 -7.3 °C -14.2 °C 34635.4 hPa WNW 17.9 km/h 17.9 km/h 44 % 0 mm
12:10 -7.2 °C -14.5 °C 34635.4 hPa NNE 14 km/h 14 km/h 42 % 0 mm
12:15 -6.9 °C -14.3 °C 34635.4 hPa WSW 17.9 km/h 17.9 km/h 42 % 0 mm
12:20 -6.7 °C -14.1 °C 34635.4 hPa WSW 11.9 km/h 11.9 km/h 42 % 0 mm
12:25 -6.7 °C -14.1 °C 34635.4 hPa WSW 15 km/h 15 km/h 42 % 0 mm
12:30 -6.5 °C -14.1 °C 34635.4 hPa SW 9 km/h 9 km/h 41 % 0 mm
12:35 -6.7 °C -14.9 °C 34635.4 hPa SW 23.8 km/h 23.8 km/h 38 % 0 mm
12:40 -6.7 °C -14.9 °C 34635.4 hPa West 15.6 km/h 15.6 km/h 38 % 0 mm
12:45 -6.6 °C -14.8 °C 34635.4 hPa SSW 15.6 km/h 15.6 km/h 38 % 0 mm
12:50 -6.6 °C -14.8 °C 34669.3 hPa SW 19.2 km/h 19.2 km/h 38 % 0 mm
12:55 -6.6 °C -14.8 °C 34669.3 hPa NW 11.9 km/h 11.9 km/h 38 % 0 mm
13:00 -6.6 °C -14.8 °C 34669.3 hPa SW 23.8 km/h 23.8 km/h 38 % 0 mm
13:05 -6.6 °C -14.8 °C 34635.4 hPa SW 17.9 km/h 17.9 km/h 38 % 0 mm
13:10 -6.6 °C -14.8 °C 34635.4 hPa WSW 15 km/h 15 km/h 38 % 0 mm
13:15 -6.6 °C -14.8 °C 34635.4 hPa West 9.8 km/h 9.8 km/h 38 % 0 mm
13:20 -6.6 °C -14.8 °C 34635.4 hPa WSW 17.9 km/h 17.9 km/h 38 % 0 mm
13:25 -6.6 °C -14.8 °C 34635.4 hPa WSW 15 km/h 15 km/h 38 % 0 mm
13:30 -6.6 °C -14.8 °C 34635.4 hPa SW 23.8 km/h 23.8 km/h 38 % 0 mm
13:35 -6.2 °C -15.6 °C 34635.4 hPa WSW 17.9 km/h 17.9 km/h 33 % 0 mm
13:40 -6.2 °C -15.6 °C 34635.4 hPa SSW 17.9 km/h 17.9 km/h 33 % 0 mm
13:45 -6.2 °C -15.6 °C 34635.4 hPa SW 23.8 km/h 23.8 km/h 33 % 0 mm
13:50 -6.2 °C -15.6 °C 34635.4 hPa SSW 15 km/h 15 km/h 33 % 0 mm
13:55 -6.2 °C -15.6 °C 34635.4 hPa SW 17.9 km/h 17.9 km/h 33 % 0 mm
14:00 -6.2 °C -15.6 °C 34635.4 hPa West 17.9 km/h 17.9 km/h 33 % 0 mm
14:05 -6.2 °C -15.6 °C 34635.4 hPa West 15 km/h 15 km/h 33 % 0 mm
14:10 -6.2 °C -15.6 °C 34635.4 hPa WNW 6 km/h 6.3 km/h 33 % 0 mm
14:15 -6.2 °C -15.6 °C 34635.4 hPa WNW 11.9 km/h 11.9 km/h 33 % 0 mm
14:20 -6.2 °C -15.6 °C 34635.4 hPa WSW 20.9 km/h 20.9 km/h 33 % 0 mm
14:25 -6.2 °C -15.6 °C 34635.4 hPa NNE 15 km/h 15 km/h 33 % 0 mm
14:30 -6.2 °C -15.6 °C 34635.4 hPa SW 9 km/h 9 km/h 33 % 0 mm
14:35 -6.2 °C -15.6 °C 34635.4 hPa WSW 17.9 km/h 17.9 km/h 33 % 0 mm
14:40 -6.2 °C -15.6 °C 34635.4 hPa West 11.9 km/h 11.9 km/h 33 % 0 mm
14:45 -5.1 °C -15.1 °C 34635.4 hPa SSW 6.3 km/h 6.3 km/h 31 % 0 mm
14:50 -4.8 °C -15.2 °C 34601.5 hPa West 11.9 km/h 11.9 km/h 30 % 0 mm
14:55 -4.9 °C -15.2 °C 34601.5 hPa WNW 7.6 km/h 7.6 km/h 30 % 0 mm
15:00 -4.9 °C -15.2 °C 34601.5 hPa WSW 11.9 km/h 11.9 km/h 30 % 0 mm
15:05 -4.9 °C -15.2 °C 34601.5 hPa SW 20.9 km/h 20.9 km/h 30 % 0 mm
15:10 -4.9 °C -15.2 °C 34601.5 hPa WSW 11.9 km/h 11.9 km/h 30 % 0 mm
15:15 -4.9 °C -15.2 °C 34601.5 hPa NE 15 km/h 15 km/h 30 % 0 mm
15:20 -4.9 °C -15.2 °C 34601.5 hPa SW 17.9 km/h 17.9 km/h 30 % 0 mm
15:25 -4.7 °C -15.3 °C 34601.5 hPa SW 20.9 km/h 20.9 km/h 29 % 0 mm
15:30 -4.7 °C -15.3 °C 34601.5 hPa SW 15 km/h 15 km/h 29 % 0 mm
15:35 -4.6 °C -15.4 °C 34567.7 hPa SW 11.9 km/h 11.9 km/h 28 % 0 mm
15:40 -4.6 °C -15.4 °C 34567.7 hPa WSW 17.9 km/h 17.9 km/h 28 % 0 mm
15:45 -4.4 °C -15.7 °C 34567.7 hPa SW 25.1 km/h 25.1 km/h 27 % 0 mm
15:55 -4.4 °C -15.7 °C 34601.5 hPa SW 14 km/h 14 km/h 27 % 0 mm
16:00 -4.4 °C -15.7 °C 34601.5 hPa SW 11.9 km/h 11.9 km/h 27 % 0 mm
16:05 -4.4 °C -15.7 °C 34601.5 hPa SW 22 km/h 22 km/h 27 % 0 mm
16:10 -4.4 °C -15.7 °C 34601.5 hPa SW 20.9 km/h 20.9 km/h 27 % 0 mm
16:15 -4.4 °C -15.7 °C 34601.5 hPa WSW 26.9 km/h 26.9 km/h 27 % 0 mm
16:20 -4.4 °C -15.7 °C 34567.7 hPa SW 22.5 km/h 22.5 km/h 27 % 0 mm
16:25 -4.4 °C -15.7 °C 34567.7 hPa SSW 15 km/h 15 km/h 27 % 0 mm
16:30 -4.4 °C -15.7 °C 34567.7 hPa SSW 20.9 km/h 20.9 km/h 27 % 0 mm
16:35 -4.4 °C -15.7 °C 34567.7 hPa WSW 20.9 km/h 20.9 km/h 27 % 0 mm
16:40 -4.4 °C -15.7 °C 34567.7 hPa SSW 26.4 km/h 26.4 km/h 27 % 0 mm
16:45 -4.8 °C -15.4 °C 34567.7 hPa South 25.1 km/h 25.1 km/h 29 % 0 mm
16:50 -5 °C -15.6 °C 34567.7 hPa SW 26.9 km/h 26.9 km/h 29 % 0 mm
16:55 -4.9 °C -15.4 °C 34567.7 hPa SW 23.8 km/h 23.8 km/h 29 % 0 mm
17:00 -4.9 °C -15.5 °C 34567.7 hPa SW 20.9 km/h 20.9 km/h 29 % 0 mm
17:05 -4.9 °C -15.5 °C 34533.8 hPa SW 17.9 km/h 17.9 km/h 29 % 0 mm
17:10 -4.9 °C -15.4 °C 34533.8 hPa SSW 20.9 km/h 20.9 km/h 29 % 0 mm
17:15 -4.9 °C -15.5 °C 34533.8 hPa WSW 20.9 km/h 20.9 km/h 29 % 0 mm
17:20 -5.1 °C -15.4 °C 34533.8 hPa SW 32.8 km/h 32.8 km/h 30 % 0 mm
17:25 -5.2 °C -15.5 °C 34533.8 hPa SSW 15.3 km/h 15.3 km/h 30 % 0 mm
17:30 -5.1 °C -15.1 °C 34533.8 hPa SW 20.9 km/h 20.9 km/h 31 % 0 mm
17:35 -5.3 °C -15.3 °C 34533.8 hPa SSE 17.9 km/h 17.9 km/h 31 % 0 mm
17:40 -5.2 °C -15.2 °C 34533.8 hPa SSW 15 km/h 15 km/h 31 % 0 mm
17:45 -5.2 °C -15.2 °C 34533.8 hPa SSW 26.9 km/h 26.9 km/h 31 % 0 mm
17:50 -5.2 °C -15.2 °C 34533.8 hPa SW 12.9 km/h 36.2 km/h 31 % 0 mm
17:55 -5.2 °C -15.5 °C 34533.8 hPa SW 18.2 km/h 33.6 km/h 30 % 0 mm
18:00 -5.4 °C -15.6 °C 34533.8 hPa South 35.7 km/h 35.7 km/h 30 % 0 mm
18:05 -5.5 °C -15.7 °C 34533.8 hPa SW 18.2 km/h 28.5 km/h 30 % 0 mm
18:10 -5.5 °C -15.7 °C 34533.8 hPa WSW 29.8 km/h 29.8 km/h 30 % 0 mm
18:15 -5.6 °C -15.5 °C 34533.8 hPa SSW 17.9 km/h 17.9 km/h 31 % 0 mm
18:20 -5.7 °C -15.6 °C 34533.8 hPa SW 20.8 km/h 51.8 km/h 31 % 0 mm
18:25 -5.7 °C -15.6 °C 34533.8 hPa SSW 32.8 km/h 32.8 km/h 31 % 0 mm
18:30 -5.7 °C -15.7 °C 34533.8 hPa WSW 26.9 km/h 26.9 km/h 31 % 0 mm
18:35 -5.8 °C -15.7 °C 34533.8 hPa WSW 22.5 km/h 22.5 km/h 31 % 0 mm
18:40 -5.8 °C -15.7 °C 34533.8 hPa South 32.8 km/h 32.8 km/h 31 % 0 mm
18:45 -5.8 °C -15.5 °C 34533.8 hPa West 29.8 km/h 29.8 km/h 32 % 0 mm
18:50 -6 °C -15.4 °C 34533.8 hPa SW 35.7 km/h 35.7 km/h 33 % 0 mm
18:55 -6.2 °C -15.3 °C 34533.8 hPa SW 15.6 km/h 41.4 km/h 34 % 0 mm
19:00 -6.2 °C -15.6 °C 34533.8 hPa WSW 37 km/h 37 km/h 33 % 0 mm
19:05 -6.3 °C -15.7 °C 34533.8 hPa SW 23.8 km/h 23.8 km/h 33 % 0 mm
19:10 -6.3 °C -15.4 °C 34533.8 hPa WSW 15 km/h 15 km/h 34 % 0 mm
19:20 -6.4 °C -15.3 °C 34533.8 hPa South 23.8 km/h 23.8 km/h 35 % 0 mm
19:25 -6.6 °C -15.4 °C 34533.8 hPa WSW 29.8 km/h 29.8 km/h 35 % 0 mm
19:30 -6.7 °C -15.1 °C 34533.8 hPa SW 12.9 km/h 33.6 km/h 37 % 0 mm
19:35 -6.8 °C -14.9 °C 34533.8 hPa WSW 33.2 km/h 33.2 km/h 38 % 0 mm
19:40 -7 °C -14.9 °C 34533.8 hPa South 17.9 km/h 17.9 km/h 39 % 0 mm
19:45 -7.1 °C -14.8 °C 34533.8 hPa SW 17.9 km/h 17.9 km/h 40 % 0 mm
19:50 -7.2 °C -14.8 °C 34533.8 hPa SW 15.6 km/h 41.4 km/h 41 % 0 mm
19:55 -7.4 °C -14.5 °C 34533.8 hPa SW 15.6 km/h 20.8 km/h 43 % 0 mm
20:00 -7.5 °C -14.4 °C 34533.8 hPa SW 15.6 km/h 23.3 km/h 44 % 0 mm
20:05 -7.6 °C -14.3 °C 34533.8 hPa SW 18.2 km/h 28.5 km/h 45 % 0 mm
20:10 -7.7 °C -14.3 °C 34533.8 hPa WSW 17.9 km/h 17.9 km/h 46 % 0 mm
20:15 -7.8 °C -14.4 °C 34533.8 hPa SW 12.9 km/h 20.8 km/h 46 % 0 mm
20:20 -7.9 °C -14.3 °C 34533.8 hPa SW 23.8 km/h 23.8 km/h 47 % 0 mm
20:25 -8 °C -14.2 °C 34533.8 hPa SW 18.2 km/h 31.1 km/h 48 % 0 mm
20:30 -8.1 °C -14.1 °C 34533.8 hPa SW 23.8 km/h 23.8 km/h 49 % 0 mm
20:35 -8.2 °C -14 °C 34567.7 hPa SW 26.9 km/h 26.9 km/h 50 % 0 mm
20:40 -8.3 °C -14.1 °C 34567.7 hPa WSW 20.9 km/h 20.9 km/h 50 % 0 mm
20:50 -8.4 °C -14.1 °C 34567.7 hPa West 15 km/h 15 km/h 51 % 0 mm
21:00 -8.6 °C -14.2 °C 34567.7 hPa WNW 6.3 km/h 6.3 km/h 51 % 0 mm
21:05 -8.6 °C -14.2 °C 34567.7 hPa WNW 6 km/h 6 km/h 51 % 0 mm
21:10 -8.7 °C -14.4 °C 34567.7 hPa WSW 9 km/h 9 km/h 51 % 0 mm
21:15 -8.8 °C -14.4 °C 34567.7 hPa SSW 9 km/h 9 km/h 51 % 0 mm
21:20 -8.8 °C -14.3 °C 34601.5 hPa West 6.8 km/h 6.8 km/h 52 % 0 mm
21:25 -8.8 °C -14.3 °C 34601.5 hPa West 6 km/h 6 km/h 52 % 0 mm
21:30 -8.9 °C -14.3 °C 34601.5 hPa WSW 8 km/h 8 km/h 52 % 0 mm
21:35 -8.9 °C -14.2 °C 34601.5 hPa WSW 9 km/h 9 km/h 53 % 0 mm
21:40 -9 °C -14.3 °C 34601.5 hPa West 9 km/h 9 km/h 53 % 0 mm
21:45 -9 °C -14.3 °C 34601.5 hPa WSW 5.1 km/h 7.7 km/h 53 % 0 mm
21:50 -9.1 °C -14.3 °C 34601.5 hPa NNE 3.1 km/h   54 % 0 mm
21:55 -9.2 °C -14.5 °C 34601.5 hPa SW 5.6 km/h 5.6 km/h 53 % 0 mm
22:00 -9.3 °C -14.4 °C 34601.5 hPa West 3.1 km/h   54 % 0 mm
22:05 -9.3 °C -14.5 °C 34601.5 hPa NNE 3.1 km/h 3.1 km/h 54 % 0 mm
22:10 -9.3 °C -14.5 °C 34601.5 hPa Calm   2.6 km/h 54 % 0 mm
22:15 -9.3 °C -14.3 °C 34601.5 hPa NE 2.6 km/h 7.7 km/h 55 % 0 mm
22:20 -9.4 °C -14.4 °C 34601.5 hPa Calm     55 % 0 mm
22:25 -9.4 °C -14.4 °C 34601.5 hPa NE 6 km/h 6 km/h 55 % 0 mm
22:30 -9.4 °C -14.4 °C 34601.5 hPa NNE 2.6 km/h 5.1 km/h 55 % 0 mm
22:35 -9.4 °C -14.4 °C 34635.4 hPa NNE 3.1 km/h 3.7 km/h 55 % 0 mm
22:40 -9.4 °C -14.4 °C 34635.4 hPa NNE 7.7 km/h 12.9 km/h 55 % 0 mm
22:45 -9.4 °C -14.2 °C 34635.4 hPa NE 7.7 km/h 12.9 km/h 56 % 0 mm
22:50 -9.4 °C -14.1 °C 34635.4 hPa NNE 11.9 km/h 11.9 km/h 57 % 0 mm
22:55 -9.4 °C -14.1 °C 34635.4 hPa NE 7.7 km/h 12.9 km/h 57 % 0 mm
23:00 -9.5 °C -14.1 °C 34635.4 hPa NE 9 km/h 9.8 km/h 58 % 0 mm
23:10 -9.6 °C -14.2 °C 34635.4 hPa NNE 12.2 km/h 12.2 km/h 58 % 0 mm
23:15 -9.6 °C -14 °C 34635.4 hPa NE 9 km/h 9 km/h 59 % 0 mm
23:20 -9.7 °C -13.9 °C 34635.4 hPa East 8 km/h 8 km/h 60 % 0 mm
23:25 -9.7 °C -14 °C 34635.4 hPa ENE 5.1 km/h 10.3 km/h 60 % 0 mm
23:30 -9.8 °C -14.1 °C 34635.4 hPa ENE 5.1 km/h 10.3 km/h 60 % 0 mm
23:35 -9.8 °C -13.9 °C 34635.4 hPa East 5.1 km/h 7.7 km/h 61 % 0 mm
23:40 -9.9 °C -14 °C 34635.4 hPa East 9 km/h 9 km/h 61 % 0 mm
23:45 -9.9 °C -13.9 °C 34635.4 hPa ENE 7.6 km/h 7.6 km/h 62 % 0 mm
23:50 -10 °C -14 °C 34635.4 hPa ESE 9 km/h 9 km/h 62 % 0 mm
23:55 -10 °C -14 °C 34635.4 hPa ENE 7.6 km/h 7.6 km/h 62 % 0 mm
Meteo Sesrovires
Elogis d' Weather Underground - 2 mb

Guio original per  Jim McMurry - jmcmurry@mwt.net Adaptat per a la plantilla per  Wim van der Kuil - Leuven-Template.eu

Trobareu la nostra informacio del temps tambe a:

Weather Underground

AWEKAS